sensor_id;sensor_type;location;lat;lon;timestamp;temperature;humidity
13440;DHT22;6792;57.698;11.946;2023-03-23T00:01:25;13.10;57.20
13440;DHT22;6792;57.698;11.946;2023-03-23T00:03:57;13.10;57.10
13440;DHT22;6792;57.698;11.946;2023-03-23T00:06:28;13.10;56.60
13440;DHT22;6792;57.698;11.946;2023-03-23T00:08:58;13.10;57.20
13440;DHT22;6792;57.698;11.946;2023-03-23T00:11:31;13.10;57.10
13440;DHT22;6792;57.698;11.946;2023-03-23T00:14:01;13.10;56.60
13440;DHT22;6792;57.698;11.946;2023-03-23T00:16:32;13.10;57.60
13440;DHT22;6792;57.698;11.946;2023-03-23T00:19:04;13.00;57.20
13440;DHT22;6792;57.698;11.946;2023-03-23T00:21:35;13.00;56.60
13440;DHT22;6792;57.698;11.946;2023-03-23T00:24:07;13.00;57.20
13440;DHT22;6792;57.698;11.946;2023-03-23T00:26:38;13.00;56.60
13440;DHT22;6792;57.698;11.946;2023-03-23T00:29:11;13.00;56.70
13440;DHT22;6792;57.698;11.946;2023-03-23T00:31:41;13.00;57.20
13440;DHT22;6792;57.698;11.946;2023-03-23T00:34:12;13.00;57.20
13440;DHT22;6792;57.698;11.946;2023-03-23T00:36:43;13.00;57.20
13440;DHT22;6792;57.698;11.946;2023-03-23T00:39:12;13.00;57.20
13440;DHT22;6792;57.698;11.946;2023-03-23T00:41:43;12.90;57.10
13440;DHT22;6792;57.698;11.946;2023-03-23T00:44:14;12.90;57.20
13440;DHT22;6792;57.698;11.946;2023-03-23T00:46:44;12.90;57.30
13440;DHT22;6792;57.698;11.946;2023-03-23T00:49:15;12.90;57.20
13440;DHT22;6792;57.698;11.946;2023-03-23T00:51:45;12.90;56.70
13440;DHT22;6792;57.698;11.946;2023-03-23T00:54:14;12.90;56.70
13440;DHT22;6792;57.698;11.946;2023-03-23T00:56:43;12.90;57.20
13440;DHT22;6792;57.698;11.946;2023-03-23T00:59:12;12.80;57.80
13440;DHT22;6792;57.698;11.946;2023-03-23T01:01:41;12.90;56.80
13440;DHT22;6792;57.698;11.946;2023-03-23T01:06:41;12.90;56.80
13440;DHT22;6792;57.698;11.946;2023-03-23T01:09:12;12.90;57.30
13440;DHT22;6792;57.698;11.946;2023-03-23T01:11:43;12.90;57.40
13440;DHT22;6792;57.698;11.946;2023-03-23T01:14:14;12.90;57.40
13440;DHT22;6792;57.698;11.946;2023-03-23T01:16:43;12.90;57.40
13440;DHT22;6792;57.698;11.946;2023-03-23T01:19:12;12.90;57.40
13440;DHT22;6792;57.698;11.946;2023-03-23T01:21:43;12.90;57.40
13440;DHT22;6792;57.698;11.946;2023-03-23T01:24:12;12.90;57.40
13440;DHT22;6792;57.698;11.946;2023-03-23T01:26:41;12.90;57.40
13440;DHT22;6792;57.698;11.946;2023-03-23T01:29:10;12.90;57.50
13440;DHT22;6792;57.698;11.946;2023-03-23T01:31:39;12.90;57.40
13440;DHT22;6792;57.698;11.946;2023-03-23T01:34:09;12.90;57.40
13440;DHT22;6792;57.698;11.946;2023-03-23T01:36:38;12.90;57.40
13440;DHT22;6792;57.698;11.946;2023-03-23T01:39:07;12.90;57.40
13440;DHT22;6792;57.698;11.946;2023-03-23T01:41:37;12.90;57.40
13440;DHT22;6792;57.698;11.946;2023-03-23T01:46:57;12.90;57.50
13440;DHT22;6792;57.698;11.946;2023-03-23T01:49:29;12.90;57.50
13440;DHT22;6792;57.698;11.946;2023-03-23T01:52:01;12.90;56.90
13440;DHT22;6792;57.698;11.946;2023-03-23T01:54:33;12.90;57.50
13440;DHT22;6792;57.698;11.946;2023-03-23T01:57:03;12.90;57.50
13440;DHT22;6792;57.698;11.946;2023-03-23T01:59:35;12.90;57.50
13440;DHT22;6792;57.698;11.946;2023-03-23T02:02:04;12.90;57.50
13440;DHT22;6792;57.698;11.946;2023-03-23T02:04:35;12.80;57.40
13440;DHT22;6792;57.698;11.946;2023-03-23T02:07:04;12.80;56.90
13440;DHT22;6792;57.698;11.946;2023-03-23T02:09:35;12.90;57.50
13440;DHT22;6792;57.698;11.946;2023-03-23T02:12:05;12.90;56.90
13440;DHT22;6792;57.698;11.946;2023-03-23T02:14:35;12.90;56.90
13440;DHT22;6792;57.698;11.946;2023-03-23T02:17:07;12.90;57.40
13440;DHT22;6792;57.698;11.946;2023-03-23T02:19:58;12.90;57.50
13440;DHT22;6792;57.698;11.946;2023-03-23T02:22:39;12.90;57.50
13440;DHT22;6792;57.698;11.946;2023-03-23T02:25:28;12.90;57.50
13440;DHT22;6792;57.698;11.946;2023-03-23T02:28:18;12.90;57.50
13440;DHT22;6792;57.698;11.946;2023-03-23T02:33:48;12.90;57.10
13440;DHT22;6792;57.698;11.946;2023-03-23T02:36:24;12.90;57.70
13440;DHT22;6792;57.698;11.946;2023-03-23T02:39:00;12.90;57.10
13440;DHT22;6792;57.698;11.946;2023-03-23T02:41:31;12.90;57.60
13440;DHT22;6792;57.698;11.946;2023-03-23T02:44:03;13.00;57.60
13440;DHT22;6792;57.698;11.946;2023-03-23T02:46:34;13.00;57.60
13440;DHT22;6792;57.698;11.946;2023-03-23T02:49:05;13.00;57.60
13440;DHT22;6792;57.698;11.946;2023-03-23T02:51:35;13.10;57.60
13440;DHT22;6792;57.698;11.946;2023-03-23T02:54:06;13.10;57.60
13440;DHT22;6792;57.698;11.946;2023-03-23T02:56:36;13.10;57.60
13440;DHT22;6792;57.698;11.946;2023-03-23T02:59:08;13.20;57.60
13440;DHT22;6792;57.698;11.946;2023-03-23T03:04:50;13.20;57.00
13440;DHT22;6792;57.698;11.946;2023-03-23T03:07:48;13.20;58.00
13440;DHT22;6792;57.698;11.946;2023-03-23T03:10:22;13.20;57.10
13440;DHT22;6792;57.698;11.946;2023-03-23T03:12:56;13.20;57.20
13440;DHT22;6792;57.698;11.946;2023-03-23T03:15:29;13.20;57.80
13440;DHT22;6792;57.698;11.946;2023-03-23T03:18:05;13.20;57.70
13440;DHT22;6792;57.698;11.946;2023-03-23T03:20:36;13.20;57.70
13440;DHT22;6792;57.698;11.946;2023-03-23T03:23:06;13.20;57.10
13440;DHT22;6792;57.698;11.946;2023-03-23T03:25:38;13.20;57.60
13440;DHT22;6792;57.698;11.946;2023-03-23T03:28:08;13.20;57.60
13440;DHT22;6792;57.698;11.946;2023-03-23T03:30:38;13.30;57.60
13440;DHT22;6792;57.698;11.946;2023-03-23T03:33:10;13.30;57.60
13440;DHT22;6792;57.698;11.946;2023-03-23T03:35:41;13.30;57.70
13440;DHT22;6792;57.698;11.946;2023-03-23T03:38:11;13.30;57.60
13440;DHT22;6792;57.698;11.946;2023-03-23T03:40:40;13.30;57.60
13440;DHT22;6792;57.698;11.946;2023-03-23T03:43:10;13.30;57.60
13440;DHT22;6792;57.698;11.946;2023-03-23T03:45:39;13.40;57.50
13440;DHT22;6792;57.698;11.946;2023-03-23T03:48:10;13.40;57.50
13440;DHT22;6792;57.698;11.946;2023-03-23T03:50:39;13.40;57.50
13440;DHT22;6792;57.698;11.946;2023-03-23T03:53:08;13.40;57.50
13440;DHT22;6792;57.698;11.946;2023-03-23T03:55:37;13.40;57.50
13440;DHT22;6792;57.698;11.946;2023-03-23T03:58:06;13.40;57.50
13440;DHT22;6792;57.698;11.946;2023-03-23T04:00:36;13.40;57.00
13440;DHT22;6792;57.698;11.946;2023-03-23T04:03:06;13.40;57.50
13440;DHT22;6792;57.698;11.946;2023-03-23T04:05:36;13.50;57.50
13440;DHT22;6792;57.698;11.946;2023-03-23T04:08:05;13.50;57.50
13440;DHT22;6792;57.698;11.946;2023-03-23T04:10:35;13.50;57.50
13440;DHT22;6792;57.698;11.946;2023-03-23T04:13:04;13.50;57.50
13440;DHT22;6792;57.698;11.946;2023-03-23T04:15:33;13.50;57.40
13440;DHT22;6792;57.698;11.946;2023-03-23T04:18:03;13.50;57.50
13440;DHT22;6792;57.698;11.946;2023-03-23T04:20:33;13.50;57.40
13440;DHT22;6792;57.698;11.946;2023-03-23T04:23:02;13.50;57.50
13440;DHT22;6792;57.698;11.946;2023-03-23T04:25:32;13.50;57.40
13440;DHT22;6792;57.698;11.946;2023-03-23T04:28:03;13.50;57.40
13440;DHT22;6792;57.698;11.946;2023-03-23T04:30:32;13.50;57.40
13440;DHT22;6792;57.698;11.946;2023-03-23T04:33:01;13.50;57.50
13440;DHT22;6792;57.698;11.946;2023-03-23T04:35:31;13.50;57.40
13440;DHT22;6792;57.698;11.946;2023-03-23T04:38:00;13.60;57.40
13440;DHT22;6792;57.698;11.946;2023-03-23T04:40:29;13.60;57.40
13440;DHT22;6792;57.698;11.946;2023-03-23T04:42:58;13.60;57.40
13440;DHT22;6792;57.698;11.946;2023-03-23T04:45:28;13.60;57.40
13440;DHT22;6792;57.698;11.946;2023-03-23T04:47:57;13.60;57.40
13440;DHT22;6792;57.698;11.946;2023-03-23T04:50:28;13.50;56.80
13440;DHT22;6792;57.698;11.946;2023-03-23T04:53:01;13.60;57.40
13440;DHT22;6792;57.698;11.946;2023-03-23T04:55:32;13.60;57.40
13440;DHT22;6792;57.698;11.946;2023-03-23T04:58:03;13.60;57.40
13440;DHT22;6792;57.698;11.946;2023-03-23T05:00:33;13.60;57.30
13440;DHT22;6792;57.698;11.946;2023-03-23T05:03:02;13.60;57.30
13440;DHT22;6792;57.698;11.946;2023-03-23T05:05:32;13.60;57.30
13440;DHT22;6792;57.698;11.946;2023-03-23T05:08:02;13.60;57.30
13440;DHT22;6792;57.698;11.946;2023-03-23T05:10:31;13.60;57.40
13440;DHT22;6792;57.698;11.946;2023-03-23T05:13:00;13.50;56.70
13440;DHT22;6792;57.698;11.946;2023-03-23T05:15:29;13.60;57.30
13440;DHT22;6792;57.698;11.946;2023-03-23T05:17:58;13.60;57.30
13440;DHT22;6792;57.698;11.946;2023-03-23T05:20:27;13.60;57.30
13440;DHT22;6792;57.698;11.946;2023-03-23T05:22:57;13.70;57.30
13440;DHT22;6792;57.698;11.946;2023-03-23T05:25:26;13.70;57.20
13440;DHT22;6792;57.698;11.946;2023-03-23T05:27:55;13.70;57.20
13440;DHT22;6792;57.698;11.946;2023-03-23T05:30:26;13.70;57.30
13440;DHT22;6792;57.698;11.946;2023-03-23T05:32:55;13.70;57.30
13440;DHT22;6792;57.698;11.946;2023-03-23T05:35:25;13.70;57.20
13440;DHT22;6792;57.698;11.946;2023-03-23T05:37:54;13.60;56.70
13440;DHT22;6792;57.698;11.946;2023-03-23T05:40:23;13.60;57.20
13440;DHT22;6792;57.698;11.946;2023-03-23T05:42:55;13.70;57.20
13440;DHT22;6792;57.698;11.946;2023-03-23T05:45:26;13.70;57.20
13440;DHT22;6792;57.698;11.946;2023-03-23T05:47:55;13.70;57.20
13440;DHT22;6792;57.698;11.946;2023-03-23T05:50:25;13.70;57.20
13440;DHT22;6792;57.698;11.946;2023-03-23T05:52:56;13.70;57.20
13440;DHT22;6792;57.698;11.946;2023-03-23T05:55:25;13.80;57.20
13440;DHT22;6792;57.698;11.946;2023-03-23T05:57:54;13.80;57.20
13440;DHT22;6792;57.698;11.946;2023-03-23T06:00:23;13.70;57.10
13440;DHT22;6792;57.698;11.946;2023-03-23T06:02:54;13.70;57.10
13440;DHT22;6792;57.698;11.946;2023-03-23T06:05:24;13.70;57.10
13440;DHT22;6792;57.698;11.946;2023-03-23T06:07:54;13.70;57.10
13440;DHT22;6792;57.698;11.946;2023-03-23T06:10:23;13.70;57.10
13440;DHT22;6792;57.698;11.946;2023-03-23T06:12:52;13.70;57.20
13440;DHT22;6792;57.698;11.946;2023-03-23T06:15:21;13.70;57.10
13440;DHT22;6792;57.698;11.946;2023-03-23T06:17:50;13.70;57.10
13440;DHT22;6792;57.698;11.946;2023-03-23T06:20:21;13.70;57.10
13440;DHT22;6792;57.698;11.946;2023-03-23T06:22:52;13.70;57.10
13440;DHT22;6792;57.698;11.946;2023-03-23T06:25:21;13.70;57.10
13440;DHT22;6792;57.698;11.946;2023-03-23T06:27:50;13.70;57.10
13440;DHT22;6792;57.698;11.946;2023-03-23T06:30:20;13.70;57.10
13440;DHT22;6792;57.698;11.946;2023-03-23T06:32:49;13.70;57.20
13440;DHT22;6792;57.698;11.946;2023-03-23T06:35:19;13.70;57.20
13440;DHT22;6792;57.698;11.946;2023-03-23T06:37:48;13.70;57.20
13440;DHT22;6792;57.698;11.946;2023-03-23T06:40:19;13.60;56.60
13440;DHT22;6792;57.698;11.946;2023-03-23T06:42:49;13.60;57.30
13440;DHT22;6792;57.698;11.946;2023-03-23T06:45:18;13.60;57.20
13440;DHT22;6792;57.698;11.946;2023-03-23T06:47:47;13.70;57.30
13440;DHT22;6792;57.698;11.946;2023-03-23T06:50:17;13.70;57.50
13440;DHT22;6792;57.698;11.946;2023-03-23T06:52:47;13.70;57.20
13440;DHT22;6792;57.698;11.946;2023-03-23T06:55:17;13.80;57.20
13440;DHT22;6792;57.698;11.946;2023-03-23T06:57:46;13.70;57.10
13440;DHT22;6792;57.698;11.946;2023-03-23T07:00:16;13.70;57.10
13440;DHT22;6792;57.698;11.946;2023-03-23T07:02:45;13.70;57.10
13440;DHT22;6792;57.698;11.946;2023-03-23T07:05:14;13.80;57.20
13440;DHT22;6792;57.698;11.946;2023-03-23T07:07:43;13.80;57.10
13440;DHT22;6792;57.698;11.946;2023-03-23T07:10:13;13.80;57.10
13440;DHT22;6792;57.698;11.946;2023-03-23T07:12:42;13.80;57.20
13440;DHT22;6792;57.698;11.946;2023-03-23T07:15:12;13.80;57.20
13440;DHT22;6792;57.698;11.946;2023-03-23T07:17:41;13.80;57.20
13440;DHT22;6792;57.698;11.946;2023-03-23T07:20:12;13.80;57.30
13440;DHT22;6792;57.698;11.946;2023-03-23T07:22:42;13.80;57.20
13440;DHT22;6792;57.698;11.946;2023-03-23T07:25:11;13.80;56.70
13440;DHT22;6792;57.698;11.946;2023-03-23T07:27:40;13.80;57.40
13440;DHT22;6792;57.698;11.946;2023-03-23T07:30:11;13.80;57.30
13440;DHT22;6792;57.698;11.946;2023-03-23T07:32:41;13.90;57.30
13440;DHT22;6792;57.698;11.946;2023-03-23T07:35:10;13.90;57.30
13440;DHT22;6792;57.698;11.946;2023-03-23T07:37:40;14.00;57.30
13440;DHT22;6792;57.698;11.946;2023-03-23T07:40:12;14.00;57.40
13440;DHT22;6792;57.698;11.946;2023-03-23T07:42:43;14.00;56.80
13440;DHT22;6792;57.698;11.946;2023-03-23T07:45:14;14.00;57.40
13440;DHT22;6792;57.698;11.946;2023-03-23T07:47:43;14.10;57.40
13440;DHT22;6792;57.698;11.946;2023-03-23T07:50:12;14.10;57.40
13440;DHT22;6792;57.698;11.946;2023-03-23T07:52:42;14.20;57.50
13440;DHT22;6792;57.698;11.946;2023-03-23T07:55:12;14.20;57.50
13440;DHT22;6792;57.698;11.946;2023-03-23T07:57:43;14.20;57.50
13440;DHT22;6792;57.698;11.946;2023-03-23T08:00:15;14.20;56.90
13440;DHT22;6792;57.698;11.946;2023-03-23T08:02:47;14.30;57.50
13440;DHT22;6792;57.698;11.946;2023-03-23T08:05:17;14.40;57.60
13440;DHT22;6792;57.698;11.946;2023-03-23T08:07:48;14.40;57.60
13440;DHT22;6792;57.698;11.946;2023-03-23T08:10:18;14.50;57.70
13440;DHT22;6792;57.698;11.946;2023-03-23T08:12:49;14.60;57.60
13440;DHT22;6792;57.698;11.946;2023-03-23T08:15:17;14.60;57.50
13440;DHT22;6792;57.698;11.946;2023-03-23T08:17:47;14.60;57.60
13440;DHT22;6792;57.698;11.946;2023-03-23T08:20:16;14.70;57.60
13440;DHT22;6792;57.698;11.946;2023-03-23T08:22:49;14.70;57.60
13440;DHT22;6792;57.698;11.946;2023-03-23T08:25:20;14.80;57.00
13440;DHT22;6792;57.698;11.946;2023-03-23T08:27:50;14.80;57.60
13440;DHT22;6792;57.698;11.946;2023-03-23T08:30:20;14.90;57.60
13440;DHT22;6792;57.698;11.946;2023-03-23T08:32:50;15.00;57.50
13440;DHT22;6792;57.698;11.946;2023-03-23T08:35:20;15.00;57.50
13440;DHT22;6792;57.698;11.946;2023-03-23T08:37:49;15.00;57.40
13440;DHT22;6792;57.698;11.946;2023-03-23T08:40:21;15.10;57.50
13440;DHT22;6792;57.698;11.946;2023-03-23T08:42:51;15.10;57.50
13440;DHT22;6792;57.698;11.946;2023-03-23T08:45:22;15.10;57.50
13440;DHT22;6792;57.698;11.946;2023-03-23T08:47:52;15.10;57.50
13440;DHT22;6792;57.698;11.946;2023-03-23T08:50:25;15.10;57.50
13440;DHT22;6792;57.698;11.946;2023-03-23T08:52:54;15.10;57.00
13440;DHT22;6792;57.698;11.946;2023-03-23T08:55:24;15.10;57.60
13440;DHT22;6792;57.698;11.946;2023-03-23T08:57:54;15.10;57.50
13440;DHT22;6792;57.698;11.946;2023-03-23T09:00:26;15.20;57.50
13440;DHT22;6792;57.698;11.946;2023-03-23T09:02:55;15.20;57.60
13440;DHT22;6792;57.698;11.946;2023-03-23T09:05:27;15.20;57.50
13440;DHT22;6792;57.698;11.946;2023-03-23T09:07:58;15.30;57.60
13440;DHT22;6792;57.698;11.946;2023-03-23T09:10:28;15.30;57.60
13440;DHT22;6792;57.698;11.946;2023-03-23T09:12:58;15.40;57.60
13440;DHT22;6792;57.698;11.946;2023-03-23T09:15:27;15.40;57.60
13440;DHT22;6792;57.698;11.946;2023-03-23T09:17:56;15.50;57.60
13440;DHT22;6792;57.698;11.946;2023-03-23T09:23:13;15.60;56.90
13440;DHT22;6792;57.698;11.946;2023-03-23T09:25:42;15.60;57.50
13440;DHT22;6792;57.698;11.946;2023-03-23T09:28:11;15.70;57.50
13440;DHT22;6792;57.698;11.946;2023-03-23T09:30:41;15.70;56.90
13440;DHT22;6792;57.698;11.946;2023-03-23T09:33:12;15.70;57.40
13440;DHT22;6792;57.698;11.946;2023-03-23T09:35:42;15.80;57.50
13440;DHT22;6792;57.698;11.946;2023-03-23T09:38:12;15.80;57.40
13440;DHT22;6792;57.698;11.946;2023-03-23T09:40:46;15.80;57.30
13440;DHT22;6792;57.698;11.946;2023-03-23T09:43:31;15.90;57.20
13440;DHT22;6792;57.698;11.946;2023-03-23T09:46:12;15.90;57.20
13440;DHT22;6792;57.698;11.946;2023-03-23T09:48:42;15.90;57.30
13440;DHT22;6792;57.698;11.946;2023-03-23T09:51:17;15.80;57.30
13440;DHT22;6792;57.698;11.946;2023-03-23T09:53:50;15.90;57.30
13440;DHT22;6792;57.698;11.946;2023-03-23T09:56:20;15.90;56.70
13440;DHT22;6792;57.698;11.946;2023-03-23T09:58:54;15.90;57.20
13440;DHT22;6792;57.698;11.946;2023-03-23T10:01:26;15.80;57.10
13440;DHT22;6792;57.698;11.946;2023-03-23T10:03:59;15.80;56.60
13440;DHT22;6792;57.698;11.946;2023-03-23T10:06:29;15.80;57.20
13440;DHT22;6792;57.698;11.946;2023-03-23T10:09:01;15.80;57.10
13440;DHT22;6792;57.698;11.946;2023-03-23T10:11:37;15.80;57.20
13440;DHT22;6792;57.698;11.946;2023-03-23T10:14:23;15.80;57.20
13440;DHT22;6792;57.698;11.946;2023-03-23T10:16:57;15.70;57.20
13440;DHT22;6792;57.698;11.946;2023-03-23T10:19:31;15.60;57.20
13440;DHT22;6792;57.698;11.946;2023-03-23T10:22:03;15.60;56.70
13440;DHT22;6792;57.698;11.946;2023-03-23T10:24:36;15.60;57.30
13440;DHT22;6792;57.698;11.946;2023-03-23T10:27:13;15.60;56.70
13440;DHT22;6792;57.698;11.946;2023-03-23T10:29:46;15.60;57.20
13440;DHT22;6792;57.698;11.946;2023-03-23T10:32:16;15.60;56.60
13440;DHT22;6792;57.698;11.946;2023-03-23T10:34:49;15.60;57.20
13440;DHT22;6792;57.698;11.946;2023-03-23T10:37:21;15.60;57.20
13440;DHT22;6792;57.698;11.946;2023-03-23T10:39:53;15.60;57.50
13440;DHT22;6792;57.698;11.946;2023-03-23T10:42:25;15.60;57.20
13440;DHT22;6792;57.698;11.946;2023-03-23T10:44:56;15.60;57.10
13440;DHT22;6792;57.698;11.946;2023-03-23T10:47:27;15.50;56.50
13440;DHT22;6792;57.698;11.946;2023-03-23T10:49:58;15.50;57.00
13440;DHT22;6792;57.698;11.946;2023-03-23T10:52:32;15.40;57.50
13440;DHT22;6792;57.698;11.946;2023-03-23T10:55:07;15.40;57.00
13440;DHT22;6792;57.698;11.946;2023-03-23T10:57:38;15.40;57.00
13440;DHT22;6792;57.698;11.946;2023-03-23T11:00:17;15.40;56.60
13440;DHT22;6792;57.698;11.946;2023-03-23T11:02:56;15.40;57.20
13440;DHT22;6792;57.698;11.946;2023-03-23T11:05:21;15.40;57.20
13440;DHT22;6792;57.698;11.946;2023-03-23T11:07:53;15.50;57.70
13440;DHT22;6792;57.698;11.946;2023-03-23T11:10:26;15.50;57.00
13440;DHT22;6792;57.698;11.946;2023-03-23T11:12:58;15.50;57.00
13440;DHT22;6792;57.698;11.946;2023-03-23T11:15:31;15.50;57.10
13440;DHT22;6792;57.698;11.946;2023-03-23T11:18:04;15.50;56.50
13440;DHT22;6792;57.698;11.946;2023-03-23T11:20:37;15.50;56.90
13440;DHT22;6792;57.698;11.946;2023-03-23T11:23:18;15.50;56.80
13440;DHT22;6792;57.698;11.946;2023-03-23T11:26:00;15.50;56.20
13440;DHT22;6792;57.698;11.946;2023-03-23T11:28:33;15.50;56.70
13440;DHT22;6792;57.698;11.946;2023-03-23T11:31:05;15.40;57.30
13440;DHT22;6792;57.698;11.946;2023-03-23T11:33:46;15.40;56.70
13440;DHT22;6792;57.698;11.946;2023-03-23T11:36:10;15.30;56.60
13440;DHT22;6792;57.698;11.946;2023-03-23T11:38:43;15.30;56.70
13440;DHT22;6792;57.698;11.946;2023-03-23T11:41:18;15.20;56.70
13440;DHT22;6792;57.698;11.946;2023-03-23T11:43:47;15.20;56.70
13440;DHT22;6792;57.698;11.946;2023-03-23T11:46:25;15.10;56.70
13440;DHT22;6792;57.698;11.946;2023-03-23T11:48:56;15.10;56.80
13440;DHT22;6792;57.698;11.946;2023-03-23T11:51:30;15.10;56.80
13440;DHT22;6792;57.698;11.946;2023-03-23T11:54:04;15.00;56.70
13440;DHT22;6792;57.698;11.946;2023-03-23T11:56:35;15.00;56.80
13440;DHT22;6792;57.698;11.946;2023-03-23T11:59:09;14.90;56.30
13440;DHT22;6792;57.698;11.946;2023-03-23T12:01:47;15.00;56.90
13440;DHT22;6792;57.698;11.946;2023-03-23T12:04:35;15.00;57.10
13440;DHT22;6792;57.698;11.946;2023-03-23T12:07:23;15.00;57.30
13440;DHT22;6792;57.698;11.946;2023-03-23T12:09:56;15.10;57.40
13440;DHT22;6792;57.698;11.946;2023-03-23T12:12:32;15.20;57.30
13440;DHT22;6792;57.698;11.946;2023-03-23T12:15:07;15.30;57.30
13440;DHT22;6792;57.698;11.946;2023-03-23T12:17:42;15.30;56.60
13440;DHT22;6792;57.698;11.946;2023-03-23T12:20:25;15.40;57.20
13440;DHT22;6792;57.698;11.946;2023-03-23T12:23:11;15.30;57.00
13440;DHT22;6792;57.698;11.946;2023-03-23T12:26:14;15.30;57.00
13440;DHT22;6792;57.698;11.946;2023-03-23T12:29:02;15.30;56.60
13440;DHT22;6792;57.698;11.946;2023-03-23T12:31:35;15.20;57.30
13440;DHT22;6792;57.698;11.946;2023-03-23T12:34:10;15.20;56.80
13440;DHT22;6792;57.698;11.946;2023-03-23T12:36:46;15.20;57.30
13440;DHT22;6792;57.698;11.946;2023-03-23T12:39:46;15.20;57.20
13440;DHT22;6792;57.698;11.946;2023-03-23T12:42:18;15.20;57.10
13440;DHT22;6792;57.698;11.946;2023-03-23T12:44:50;15.20;57.10
13440;DHT22;6792;57.698;11.946;2023-03-23T12:47:28;15.20;57.10
13440;DHT22;6792;57.698;11.946;2023-03-23T12:50:00;15.20;57.00
13440;DHT22;6792;57.698;11.946;2023-03-23T12:52:33;15.10;56.40
13440;DHT22;6792;57.698;11.946;2023-03-23T12:55:06;15.10;57.00
13440;DHT22;6792;57.698;11.946;2023-03-23T12:57:38;15.10;56.90
13440;DHT22;6792;57.698;11.946;2023-03-23T13:00:14;15.00;57.00
13440;DHT22;6792;57.698;11.946;2023-03-23T13:02:46;15.00;56.50
13440;DHT22;6792;57.698;11.946;2023-03-23T13:05:26;15.00;57.00
13440;DHT22;6792;57.698;11.946;2023-03-23T13:07:59;14.90;57.10
13440;DHT22;6792;57.698;11.946;2023-03-23T13:10:32;14.90;57.10
13440;DHT22;6792;57.698;11.946;2023-03-23T13:13:01;14.90;56.50
13440;DHT22;6792;57.698;11.946;2023-03-23T13:15:34;14.90;57.20
13440;DHT22;6792;57.698;11.946;2023-03-23T13:18:10;14.90;57.20
13440;DHT22;6792;57.698;11.946;2023-03-23T13:21:01;14.80;57.30
13440;DHT22;6792;57.698;11.946;2023-03-23T13:23:33;14.90;56.80
13440;DHT22;6792;57.698;11.946;2023-03-23T13:26:06;14.90;57.40
13440;DHT22;6792;57.698;11.946;2023-03-23T13:28:46;14.90;57.40
13440;DHT22;6792;57.698;11.946;2023-03-23T13:31:17;14.90;57.40
13440;DHT22;6792;57.698;11.946;2023-03-23T13:33:52;14.90;57.30
13440;DHT22;6792;57.698;11.946;2023-03-23T13:36:28;15.00;57.70
13440;DHT22;6792;57.698;11.946;2023-03-23T13:38:59;14.90;56.80
13440;DHT22;6792;57.698;11.946;2023-03-23T13:41:30;15.00;57.50
13440;DHT22;6792;57.698;11.946;2023-03-23T13:44:18;15.00;57.50
13440;DHT22;6792;57.698;11.946;2023-03-23T13:47:06;15.00;56.90
13440;DHT22;6792;57.698;11.946;2023-03-23T13:49:31;15.00;57.60
13440;DHT22;6792;57.698;11.946;2023-03-23T13:52:14;15.00;57.50
13440;DHT22;6792;57.698;11.946;2023-03-23T13:54:42;15.00;57.50
13440;DHT22;6792;57.698;11.946;2023-03-23T13:57:34;15.00;57.50
13440;DHT22;6792;57.698;11.946;2023-03-23T13:59:59;15.00;57.50
13440;DHT22;6792;57.698;11.946;2023-03-23T14:02:36;15.00;57.60
13440;DHT22;6792;57.698;11.946;2023-03-23T14:05:32;15.00;57.50
13440;DHT22;6792;57.698;11.946;2023-03-23T14:08:14;15.00;57.50
13440;DHT22;6792;57.698;11.946;2023-03-23T14:10:44;15.00;57.50
13440;DHT22;6792;57.698;11.946;2023-03-23T14:13:20;15.10;57.50
13440;DHT22;6792;57.698;11.946;2023-03-23T14:15:58;15.10;57.50
13440;DHT22;6792;57.698;11.946;2023-03-23T14:18:31;15.10;57.50
13440;DHT22;6792;57.698;11.946;2023-03-23T14:21:01;15.20;57.50
13440;DHT22;6792;57.698;11.946;2023-03-23T14:23:32;15.20;57.50
13440;DHT22;6792;57.698;11.946;2023-03-23T14:26:04;15.30;57.50
13440;DHT22;6792;57.698;11.946;2023-03-23T14:28:39;15.40;57.60
13440;DHT22;6792;57.698;11.946;2023-03-23T14:31:18;15.40;57.70
13440;DHT22;6792;57.698;11.946;2023-03-23T14:33:48;15.50;57.40
13440;DHT22;6792;57.698;11.946;2023-03-23T14:36:21;15.50;57.30
13440;DHT22;6792;57.698;11.946;2023-03-23T14:38:59;15.60;57.30
13440;DHT22;6792;57.698;11.946;2023-03-23T14:41:30;15.60;57.20
13440;DHT22;6792;57.698;11.946;2023-03-23T14:44:02;15.60;57.00
13440;DHT22;6792;57.698;11.946;2023-03-23T14:46:33;15.60;57.00
13440;DHT22;6792;57.698;11.946;2023-03-23T14:49:04;15.70;56.90
13440;DHT22;6792;57.698;11.946;2023-03-23T14:51:35;15.70;56.90
13440;DHT22;6792;57.698;11.946;2023-03-23T14:54:09;15.70;56.80
13440;DHT22;6792;57.698;11.946;2023-03-23T14:56:40;15.80;56.70
13440;DHT22;6792;57.698;11.946;2023-03-23T14:59:11;15.80;56.60
13440;DHT22;6792;57.698;11.946;2023-03-23T15:01:43;15.80;56.60
13440;DHT22;6792;57.698;11.946;2023-03-23T15:04:16;15.90;56.60
13440;DHT22;6792;57.698;11.946;2023-03-23T15:06:49;15.90;56.40
13440;DHT22;6792;57.698;11.946;2023-03-23T15:09:21;15.90;56.40
13440;DHT22;6792;57.698;11.946;2023-03-23T15:11:57;15.90;56.30
13440;DHT22;6792;57.698;11.946;2023-03-23T15:14:32;15.90;56.20
13440;DHT22;6792;57.698;11.946;2023-03-23T15:17:02;15.90;56.70
13440;DHT22;6792;57.698;11.946;2023-03-23T15:19:37;15.90;56.00
13440;DHT22;6792;57.698;11.946;2023-03-23T15:22:13;15.90;55.90
13440;DHT22;6792;57.698;11.946;2023-03-23T15:24:45;15.90;55.40
13440;DHT22;6792;57.698;11.946;2023-03-23T15:27:24;15.90;56.50
13440;DHT22;6792;57.698;11.946;2023-03-23T15:29:52;15.90;55.90
13440;DHT22;6792;57.698;11.946;2023-03-23T15:32:26;15.90;55.70
13440;DHT22;6792;57.698;11.946;2023-03-23T15:34:56;15.90;56.10
13440;DHT22;6792;57.698;11.946;2023-03-23T15:37:31;15.90;55.60
13440;DHT22;6792;57.698;11.946;2023-03-23T15:40:01;16.00;55.60
13440;DHT22;6792;57.698;11.946;2023-03-23T15:42:32;16.00;55.60
13440;DHT22;6792;57.698;11.946;2023-03-23T15:45:21;16.10;55.70
13440;DHT22;6792;57.698;11.946;2023-03-23T15:47:50;16.10;55.60
13440;DHT22;6792;57.698;11.946;2023-03-23T15:50:33;16.20;55.60
13440;DHT22;6792;57.698;11.946;2023-03-23T15:52:54;18.20;55.70
13440;DHT22;6792;57.698;11.946;2023-03-23T15:55:25;16.20;55.10
13440;DHT22;6792;57.698;11.946;2023-03-23T15:57:56;16.20;55.00
13440;DHT22;6792;57.698;11.946;2023-03-23T16:00:27;16.20;54.40
13440;DHT22;6792;57.698;11.946;2023-03-23T16:02:58;16.20;54.30
13440;DHT22;6792;57.698;11.946;2023-03-23T16:05:28;16.20;54.20
13440;DHT22;6792;57.698;11.946;2023-03-23T16:07:57;16.20;54.70
13440;DHT22;6792;57.698;11.946;2023-03-23T16:10:28;16.20;54.60
13440;DHT22;6792;57.698;11.946;2023-03-23T16:12:57;16.20;54.60
13440;DHT22;6792;57.698;11.946;2023-03-23T16:15:26;16.20;54.50